createdAt,value
2022-08-24T00:02:07.731Z,100488.13
2022-08-24T00:04:38.710Z,100497.63
2022-08-24T00:07:07.132Z,100482.88
2022-08-24T00:09:49.527Z,100504.16
2022-08-24T00:12:19.017Z,100510.56
2022-08-24T00:14:45.623Z,100493.66
2022-08-24T00:17:12.606Z,100513.94
2022-08-24T00:19:39.588Z,100520.63
2022-08-24T00:22:06.284Z,100486.56
2022-08-24T00:24:34.134Z,100518.06
2022-08-24T00:27:00.774Z,100501.88
2022-08-24T00:29:27.425Z,100518.94
2022-08-24T00:31:54.701Z,100490.09
2022-08-24T00:34:21.360Z,100503.31
2022-08-24T00:36:47.984Z,100497.66
2022-08-24T00:39:14.781Z,100519.34
2022-08-24T00:41:46.998Z,100512.97
2022-08-24T00:44:14.423Z,100512.38
2022-08-24T00:46:46.358Z,100519.75
2022-08-24T00:49:28.930Z,100496.31
2022-08-24T00:52:17.972Z,100519.16
2022-08-24T00:54:50.388Z,100499.59
2022-08-24T00:57:20.215Z,100496.31
2022-08-24T00:59:52.342Z,100519.75
2022-08-24T01:02:23.675Z,100517.16
2022-08-24T01:04:55.105Z,100516.31
2022-08-24T01:07:24.908Z,100506.50
2022-08-24T01:09:53.905Z,100490.75
2022-08-24T01:12:22.336Z,100510.91
2022-08-24T01:14:49.421Z,100522.50
2022-08-24T01:17:38.664Z,100508.47
2022-08-24T01:20:08.690Z,100502.59
2022-08-24T01:22:38.025Z,100528.47
2022-08-24T01:25:06.425Z,100504.28
2022-08-24T01:27:35.334Z,100517.44
2022-08-24T01:30:08.404Z,100525.66
2022-08-24T01:32:36.973Z,100523.25
2022-08-24T01:35:04.165Z,100514.56
2022-08-24T01:37:32.934Z,100527.94
2022-08-24T01:40:03.832Z,100525.25
2022-08-24T01:42:30.858Z,100536.84
2022-08-24T01:44:57.430Z,100526.63
2022-08-24T01:47:23.971Z,100542.97
2022-08-24T01:49:50.634Z,100536.41
2022-08-24T01:52:20.489Z,100550.91
2022-08-24T01:54:47.553Z,100550.75
2022-08-24T01:57:17.197Z,100548.91
2022-08-24T01:59:43.982Z,100538.25
2022-08-24T02:02:17.787Z,100534.81
2022-08-24T02:04:44.429Z,100546.59
2022-08-24T02:07:11.401Z,100537.22
2022-08-24T02:09:38.816Z,100530.78
2022-08-24T02:12:07.485Z,100544.72
2022-08-24T02:14:35.388Z,100545.38
2022-08-24T02:17:04.402Z,100546.06
2022-08-24T02:19:31.243Z,100544.22
2022-08-24T02:21:58.058Z,100550.56
2022-08-24T02:24:24.564Z,100557.19
2022-08-24T02:26:51.215Z,100552.22
2022-08-24T02:29:17.771Z,100549.94
2022-08-24T02:31:44.331Z,100548.09
2022-08-24T02:34:11.128Z,100541.41
2022-08-24T02:36:38.851Z,100550.19
2022-08-24T02:39:06.835Z,100541.41
2022-08-24T02:41:34.610Z,100547.03
2022-08-24T02:44:01.357Z,100559.03
2022-08-24T02:46:30.321Z,100553.47
2022-08-24T02:49:10.393Z,100544.00
2022-08-24T02:51:43.873Z,100560.13
2022-08-24T02:54:12.985Z,100542.38
2022-08-24T02:56:39.790Z,100553.97
2022-08-24T02:59:07.827Z,100535.03
2022-08-24T03:01:34.490Z,100556.25
2022-08-24T03:04:01.165Z,100560.06
2022-08-24T03:06:27.876Z,100537.00
2022-08-24T03:08:56.491Z,100552.75
2022-08-24T03:11:27.593Z,100524.13
2022-08-24T03:13:55.532Z,100537.16
2022-08-24T03:16:23.522Z,100548.88
2022-08-24T03:18:50.115Z,100558.41
2022-08-24T03:21:17.825Z,100568.16
2022-08-24T03:23:44.421Z,100559.03
2022-08-24T03:26:12.004Z,100561.56
2022-08-24T03:28:39.099Z,100556.44
2022-08-24T03:31:06.331Z,100561.56
2022-08-24T03:33:34.112Z,100559.03
2022-08-24T03:36:00.832Z,100535.22
2022-08-24T03:38:28.338Z,100542.16
2022-08-24T03:40:54.952Z,100557.78
2022-08-24T03:43:40.498Z,100532.38
2022-08-24T03:46:09.021Z,100551.31
2022-08-24T03:48:37.036Z,100545.34
2022-08-24T03:51:04.102Z,100546.69
2022-08-24T03:53:30.741Z,100543.91
2022-08-24T03:55:57.454Z,100546.59
2022-08-24T03:58:24.442Z,100543.78
2022-08-24T04:00:50.980Z,100554.53
2022-08-24T04:03:17.664Z,100564.50
2022-08-24T04:05:44.453Z,100538.88
2022-08-24T04:08:11.252Z,100526.94
2022-08-24T04:10:38.523Z,100545.34
2022-08-24T04:13:06.201Z,100550.59
2022-08-24T04:15:32.933Z,100560.75
2022-08-24T04:17:59.490Z,100551.44
2022-08-24T04:20:26.038Z,100539.84
2022-08-24T04:22:53.619Z,100544.97
2022-08-24T04:25:24.666Z,100532.28
2022-08-24T04:27:51.924Z,100533.38
2022-08-24T04:30:18.657Z,100544.00
2022-08-24T04:32:45.404Z,100565.97
2022-08-24T04:35:12.639Z,100545.69
2022-08-24T04:37:39.266Z,100568.28
2022-08-24T04:40:08.942Z,100562.66
2022-08-24T04:42:37.426Z,100569.13
2022-08-24T04:45:04.657Z,100560.09
2022-08-24T04:47:31.241Z,100566.69
2022-08-24T04:49:57.803Z,100572.06
2022-08-24T04:52:24.420Z,100550.84
2022-08-24T04:54:51.020Z,100575.38
2022-08-24T04:57:18.480Z,100578.53
2022-08-24T04:59:45.551Z,100578.91
2022-08-24T05:02:12.565Z,100580.97
2022-08-24T05:04:39.272Z,100564.75
2022-08-24T05:07:06.340Z,100587.66
2022-08-24T05:09:33.361Z,100587.66
2022-08-24T05:12:00.099Z,100588.41
2022-08-24T05:14:28.935Z,100574.59
2022-08-24T05:16:56.025Z,100591.03
2022-08-24T05:19:23.799Z,100598.63
2022-08-24T05:21:50.847Z,100593.00
2022-08-24T05:24:19.555Z,100588.22
2022-08-24T05:26:46.406Z,100592.81
2022-08-24T05:29:14.455Z,100584.09
2022-08-24T05:31:44.813Z,100578.22
2022-08-24T05:34:11.775Z,100589.03
2022-08-24T05:36:39.419Z,100591.34
2022-08-24T05:39:12.305Z,100587.47
2022-08-24T05:41:44.147Z,100594.47
2022-08-24T05:44:12.699Z,100604.19
2022-08-24T05:46:39.544Z,100598.81
2022-08-24T05:49:08.181Z,100611.75
2022-08-24T05:51:35.543Z,100605.84
2022-08-24T05:54:04.425Z,100599.31
2022-08-24T05:56:32.088Z,100584.59
2022-08-24T05:58:59.325Z,100607.22
2022-08-24T06:01:26.985Z,100604.81
2022-08-24T06:03:55.475Z,100616.19
2022-08-24T06:06:23.453Z,100581.53
2022-08-24T06:08:51.999Z,100611.25
2022-08-24T06:11:30.318Z,100622.28
2022-08-24T06:14:07.313Z,100618.16
2022-08-24T06:16:40.405Z,100609.91
2022-08-24T06:19:10.793Z,100600.97
2022-08-24T06:21:38.004Z,100621.19
2022-08-24T06:24:06.055Z,100615.13
2022-08-24T06:26:51.435Z,100610.94
2022-08-24T06:29:19.636Z,100610.84
2022-08-24T06:31:49.262Z,100608.59
2022-08-24T06:34:26.092Z,100616.72
2022-08-24T06:36:52.834Z,100628.38
2022-08-24T06:39:20.574Z,100610.13
2022-08-24T06:41:47.127Z,100611.16
2022-08-24T06:44:13.733Z,100615.91
2022-08-24T06:46:40.559Z,100605.69
2022-08-24T06:49:08.056Z,100612.47
2022-08-24T06:51:34.669Z,100615.72
2022-08-24T06:54:01.441Z,100605.53
2022-08-24T06:56:28.426Z,100609.53
2022-08-24T06:58:55.460Z,100616.59
2022-08-24T07:01:25.473Z,100618.19
2022-08-24T07:03:52.691Z,100616.72
2022-08-24T07:06:19.326Z,100613.88
2022-08-24T07:08:45.935Z,100593.47
2022-08-24T07:11:20.844Z,100610.34
2022-08-24T07:13:48.918Z,100617.16
2022-08-24T07:16:20.266Z,100619.16
2022-08-24T07:18:49.926Z,100622.75
2022-08-24T07:21:19.936Z,100621.13
2022-08-24T07:23:48.364Z,100617.72
2022-08-24T07:26:23.134Z,100625.56
2022-08-24T07:29:06.372Z,100625.72
2022-08-24T07:34:03.649Z,100629.88
2022-08-24T07:36:30.319Z,100618.72
2022-08-24T07:38:57.375Z,100629.09
2022-08-24T07:44:13.607Z,100622.03
2022-08-24T07:46:41.188Z,100627.34
2022-08-24T07:51:55.345Z,100633.13
2022-08-24T07:54:22.069Z,100631.28
2022-08-24T07:56:50.258Z,100628.47
2022-08-24T07:59:17.895Z,100633.16
2022-08-24T08:01:44.934Z,100634.50
2022-08-24T08:04:14.127Z,100637.41
2022-08-24T08:06:42.258Z,100630.44
2022-08-24T08:09:08.835Z,100627.13
2022-08-24T08:11:35.447Z,100637.38
2022-08-24T08:14:03.339Z,100640.09
2022-08-24T08:16:29.978Z,100641.13
2022-08-24T08:19:11.988Z,100651.84
2022-08-24T08:22:05.204Z,100630.63
2022-08-24T08:24:31.819Z,100629.47
2022-08-24T08:27:00.400Z,100648.78
2022-08-24T08:29:27.840Z,100648.09
2022-08-24T08:31:55.975Z,100651.00
2022-08-24T08:34:22.842Z,100626.53
2022-08-24T08:36:49.647Z,100629.28
2022-08-24T08:39:18.658Z,100641.53
2022-08-24T08:42:06.343Z,100645.59
2022-08-24T08:44:44.943Z,100643.91
2022-08-24T08:47:37.562Z,100646.94
2022-08-24T08:50:18.725Z,100645.00
2022-08-24T08:53:15.856Z,100620.28
2022-08-24T08:55:53.320Z,100649.09
2022-08-24T08:58:32.761Z,100646.94
2022-08-24T09:01:24.798Z,100649.88
2022-08-24T09:04:21.239Z,100617.16
2022-08-24T09:07:27.462Z,100624.13
2022-08-24T09:10:03.355Z,100638.41
2022-08-24T09:13:09.101Z,100644.09
2022-08-24T09:15:55.974Z,100629.66
2022-08-24T09:18:30.261Z,100645.09
2022-08-24T09:21:26.735Z,100633.03
2022-08-24T09:24:27.376Z,100637.78
2022-08-24T09:27:15.043Z,100636.56
2022-08-24T09:30:09.999Z,100639.34
2022-08-24T09:33:01.817Z,100634.72
2022-08-24T09:36:00.260Z,100618.78
2022-08-24T09:38:45.544Z,100635.44
2022-08-24T09:41:49.615Z,100639.31
2022-08-24T09:44:39.339Z,100637.09
2022-08-24T09:47:33.966Z,100638.41
2022-08-24T09:50:03.661Z,100614.13
2022-08-24T09:52:58.316Z,100639.72
2022-08-24T09:55:54.715Z,100638.69
2022-08-24T09:58:25.173Z,100636.38
2022-08-24T10:01:13.830Z,100616.44
2022-08-24T10:03:55.937Z,100629.91
2022-08-24T10:06:40.246Z,100626.81
2022-08-24T10:09:20.623Z,100629.16
2022-08-24T10:11:59.473Z,100627.47
2022-08-24T10:14:45.789Z,100623.13
2022-08-24T10:17:19.584Z,100619.03
2022-08-24T10:20:04.833Z,100611.53
2022-08-24T10:22:45.988Z,100599.56
2022-08-24T10:25:30.992Z,100611.00
2022-08-24T10:28:27.831Z,100591.88
2022-08-24T10:31:28.087Z,100576.66
2022-08-24T10:34:10.588Z,100569.97
2022-08-24T10:37:31.468Z,100587.06
2022-08-24T10:40:28.023Z,100595.41
2022-08-24T10:43:25.996Z,100598.50
2022-08-24T10:46:02.336Z,100600.19
2022-08-24T10:48:33.471Z,100595.66
2022-08-24T10:51:29.242Z,100600.19
2022-08-24T10:53:57.187Z,100597.53
2022-08-24T10:56:36.406Z,100601.72
2022-08-24T10:59:11.780Z,100591.06
2022-08-24T11:01:39.400Z,100589.28
2022-08-24T11:04:11.939Z,100579.97
2022-08-24T11:07:02.550Z,100594.56
2022-08-24T11:09:49.369Z,100590.63
2022-08-24T11:12:30.583Z,100585.41
2022-08-24T11:15:22.156Z,100583.81
2022-08-24T11:18:04.025Z,100568.09
2022-08-24T11:20:34.492Z,100575.41
2022-08-24T11:23:15.733Z,100585.34
2022-08-24T11:25:53.075Z,100571.34
2022-08-24T11:28:29.825Z,100561.84
2022-08-24T11:30:56.482Z,100570.03
2022-08-24T11:33:28.940Z,100572.19
2022-08-24T11:35:57.994Z,100559.53
2022-08-24T11:38:30.625Z,100567.25
2022-08-24T11:40:57.173Z,100575.00
2022-08-24T11:43:45.825Z,100549.19
2022-08-24T11:46:26.683Z,100562.59
2022-08-24T11:49:09.484Z,100552.78
2022-08-24T11:52:04.035Z,100533.28
2022-08-24T11:54:33.552Z,100559.06
2022-08-24T11:57:39.173Z,100555.53
2022-08-24T12:00:19.658Z,100546.63
2022-08-24T12:03:20.467Z,100545.22
2022-08-24T12:06:07.661Z,100542.53
2022-08-24T12:08:59.225Z,100507.59
2022-08-24T12:11:37.194Z,100545.06
2022-08-24T12:14:29.765Z,100534.75
2022-08-24T12:17:16.806Z,100537.56
2022-08-24T12:20:25.823Z,100529.34
2022-08-24T12:22:55.723Z,100533.34
2022-08-24T12:25:41.168Z,100522.47
2022-08-24T12:28:10.543Z,100517.22
2022-08-24T12:30:37.263Z,100528.28
2022-08-24T12:33:09.103Z,100524.94
2022-08-24T12:35:54.228Z,100523.91
2022-08-24T12:38:26.979Z,100521.38
2022-08-24T12:41:14.637Z,100514.78
2022-08-24T12:43:55.728Z,100515.59
2022-08-24T12:46:26.948Z,100518.19
2022-08-24T12:49:02.725Z,100513.56
2022-08-24T12:51:39.656Z,100512.09
2022-08-24T12:54:36.082Z,100510.84
2022-08-24T12:57:27.314Z,100513.38
2022-08-24T12:59:58.051Z,100502.19
2022-08-24T13:02:32.067Z,100501.78
2022-08-24T13:05:21.868Z,100486.19
2022-08-24T13:07:49.605Z,100510.50
2022-08-24T13:10:38.147Z,100496.78
2022-08-24T13:13:04.615Z,100485.78
2022-08-24T13:15:31.227Z,100493.56
2022-08-24T13:18:10.364Z,100473.75
2022-08-24T13:20:43.324Z,100497.16
2022-08-24T13:23:13.374Z,100492.94
2022-08-24T13:25:51.900Z,100493.19
2022-08-24T13:28:21.364Z,100493.41
2022-08-24T13:30:53.771Z,100494.25
2022-08-24T13:33:30.432Z,100494.88
2022-08-24T13:36:05.595Z,100485.41
2022-08-24T13:38:34.974Z,100484.34
2022-08-24T13:41:23.238Z,100478.44
2022-08-24T13:44:16.868Z,100467.69
2022-08-24T13:47:03.904Z,100468.09
2022-08-24T13:49:49.107Z,100472.31
2022-08-24T13:52:39.188Z,100471.00
2022-08-24T13:55:20.944Z,100442.34
2022-08-24T13:58:06.478Z,100469.09
2022-08-24T14:00:42.463Z,100466.78
2022-08-24T14:03:37.443Z,100469.53
2022-08-24T14:06:30.328Z,100474.81
2022-08-24T14:09:05.644Z,100459.03
2022-08-24T14:11:48.181Z,100469.13
2022-08-24T14:14:33.531Z,100435.63
2022-08-24T14:17:37.814Z,100458.59
2022-08-24T14:20:24.533Z,100458.81
2022-08-24T14:22:58.200Z,100457.53
2022-08-24T14:25:28.093Z,100446.41
2022-08-24T14:27:54.789Z,100448.91
2022-08-24T14:30:23.393Z,100431.63
2022-08-24T14:33:03.463Z,100442.38
2022-08-24T14:35:42.028Z,100431.84
2022-08-24T14:38:24.081Z,100438.78
2022-08-24T14:41:08.016Z,100411.19
2022-08-24T14:43:56.560Z,100435.78
2022-08-24T14:46:35.874Z,100433.69
2022-08-24T14:49:18.509Z,100420.19
2022-08-24T14:52:07.128Z,100425.88
2022-08-24T14:54:41.741Z,100427.53
2022-08-24T14:57:26.789Z,100410.25
2022-08-24T14:59:59.497Z,100426.28
2022-08-24T15:02:26.234Z,100428.19
2022-08-24T15:04:58.473Z,100423.34
2022-08-24T15:07:33.599Z,100421.22
2022-08-24T15:10:02.025Z,100415.13
2022-08-24T15:12:44.949Z,100411.75
2022-08-24T15:15:19.083Z,100419.75
2022-08-24T15:17:57.586Z,100402.03
2022-08-24T15:20:35.929Z,100405.19
2022-08-24T15:23:30.640Z,100391.53
2022-08-24T15:26:09.517Z,100396.34
2022-08-24T15:28:36.612Z,100404.38
2022-08-24T15:31:09.160Z,100382.47
2022-08-24T15:34:02.178Z,100394.91
2022-08-24T15:36:32.371Z,100396.44
2022-08-24T15:39:04.487Z,100389.88
2022-08-24T15:41:35.816Z,100389.66
2022-08-24T15:44:23.491Z,100388.84
2022-08-24T15:47:04.723Z,100400.59
2022-08-24T15:49:36.879Z,100402.31
2022-08-24T15:52:09.260Z,100388.44
2022-08-24T15:54:45.386Z,100395.78
2022-08-24T15:57:18.161Z,100402.13
2022-08-24T15:59:51.809Z,100397.06
2022-08-24T16:02:30.984Z,100398.53
2022-08-24T16:05:12.671Z,100382.06
2022-08-24T16:08:02.938Z,100408.16
2022-08-24T16:10:32.824Z,100403.50
2022-08-24T16:13:17.447Z,100406.47
2022-08-24T16:15:51.282Z,100404.38
2022-08-24T16:18:20.404Z,100388.38
2022-08-24T16:20:48.960Z,100400.81
2022-08-24T16:23:44.358Z,100402.47
2022-08-24T16:26:25.150Z,100402.25
2022-08-24T16:28:53.628Z,100392.78
2022-08-24T16:31:44.510Z,100405.19
2022-08-24T16:34:29.705Z,100380.97
2022-08-24T16:36:57.497Z,100393.41
2022-08-24T16:39:24.855Z,100380.13
2022-08-24T16:41:57.369Z,100395.94
2022-08-24T16:44:26.437Z,100394.47
2022-08-24T16:46:53.163Z,100400.97
2022-08-24T16:49:19.710Z,100401.59
2022-08-24T16:51:46.301Z,100399.03
2022-08-24T16:54:13.634Z,100380.44
2022-08-24T16:56:40.738Z,100401.31
2022-08-24T16:59:08.352Z,100396.91
2022-08-24T17:01:34.976Z,100398.31
2022-08-24T17:04:01.608Z,100401.25
2022-08-24T17:06:28.259Z,100394.50
2022-08-24T17:08:54.869Z,100402.25
2022-08-24T17:11:21.523Z,100396.53
2022-08-24T17:13:50.568Z,100400.72
2022-08-24T17:16:18.543Z,100397.72
2022-08-24T17:18:45.215Z,100395.84
2022-08-24T17:21:11.891Z,100404.03
2022-08-24T17:23:40.753Z,100394.28
2022-08-24T17:26:20.621Z,100402.44
2022-08-24T17:28:49.506Z,100397.97
2022-08-24T17:31:16.151Z,100395.00
2022-08-24T17:33:42.887Z,100393.91
2022-08-24T17:36:15.330Z,100407.97
2022-08-24T17:38:53.146Z,100406.88
2022-08-24T17:41:23.668Z,100398.19
2022-08-24T17:43:50.663Z,100404.69
2022-08-24T17:46:18.795Z,100388.75
2022-08-24T17:48:46.480Z,100419.34
2022-08-24T17:51:13.854Z,100417.84
2022-08-24T17:53:40.621Z,100415.44
2022-08-24T17:56:08.256Z,100398.03
2022-08-24T17:58:58.110Z,100412.38
2022-08-24T18:01:24.912Z,100419.66
2022-08-24T18:03:51.764Z,100410.28
2022-08-24T18:06:21.165Z,100404.97
2022-08-24T18:08:49.026Z,100428.22
2022-08-24T18:11:15.835Z,100422.72
2022-08-24T18:13:42.657Z,100424.66
2022-08-24T18:16:17.368Z,100424.41
2022-08-24T18:18:43.974Z,100399.63
2022-08-24T18:21:10.618Z,100433.25
2022-08-24T18:23:43.375Z,100405.78
2022-08-24T18:26:11.254Z,100418.09
2022-08-24T18:28:38.169Z,100441.84
2022-08-24T18:31:09.825Z,100434.63
2022-08-24T18:33:36.355Z,100439.34
2022-08-24T18:36:03.063Z,100445.69
2022-08-24T18:38:29.785Z,100454.00
2022-08-24T18:40:56.554Z,100453.41
2022-08-24T18:43:24.082Z,100457.06
2022-08-24T18:45:51.955Z,100437.22
2022-08-24T18:48:18.795Z,100443.56
2022-08-24T18:50:45.528Z,100449.91
2022-08-24T18:53:13.451Z,100455.19
2022-08-24T18:55:42.471Z,100458.44
2022-08-24T18:58:09.038Z,100468.47
2022-08-24T19:00:35.686Z,100467.53
2022-08-24T19:03:06.394Z,100471.81
2022-08-24T19:05:33.331Z,100468.16
2022-08-24T19:07:59.932Z,100447.53
2022-08-24T19:10:31.975Z,100476.72
2022-08-24T19:13:02.088Z,100485.91
2022-08-24T19:15:39.194Z,100481.13
2022-08-24T19:18:13.674Z,100480.13
2022-08-24T19:20:48.588Z,100475.03
2022-08-24T19:23:22.580Z,100482.66
2022-08-24T19:25:50.488Z,100469.97
2022-08-24T19:28:18.792Z,100477.38
2022-08-24T19:30:46.857Z,100482.13
2022-08-24T19:33:26.186Z,100475.16
2022-08-24T19:35:53.164Z,100476.13
2022-08-24T19:38:24.822Z,100460.88
2022-08-24T19:40:53.203Z,100480.25
2022-08-24T19:43:23.799Z,100484.00
2022-08-24T19:46:03.413Z,100481.31
2022-08-24T19:48:34.440Z,100467.78
2022-08-24T19:51:10.166Z,100479.03
2022-08-24T19:53:37.723Z,100481.28
2022-08-24T19:56:06.607Z,100475.03
2022-08-24T19:58:38.946Z,100478.84
2022-08-24T20:01:13.359Z,100488.34
2022-08-24T20:03:40.926Z,100489.09
2022-08-24T20:06:07.631Z,100492.69
2022-08-24T20:08:38.571Z,100479.44
2022-08-24T20:11:06.300Z,100481.19
2022-08-24T20:13:32.885Z,100478.81
2022-08-24T20:15:59.582Z,100475.41
2022-08-24T20:18:35.794Z,100487.31
2022-08-24T20:21:03.035Z,100476.63
2022-08-24T20:23:30.501Z,100481.38
2022-08-24T20:25:59.150Z,100477.47
2022-08-24T20:28:37.845Z,100486.34
2022-08-24T20:31:04.991Z,100483.63
2022-08-24T20:33:31.839Z,100478.72
2022-08-24T20:35:59.478Z,100478.88
2022-08-24T20:38:31.605Z,100486.69
2022-08-24T20:40:59.557Z,100489.41
2022-08-24T20:43:26.227Z,100488.91
2022-08-24T20:45:53.184Z,100463.47
2022-08-24T20:48:27.223Z,100484.34
2022-08-24T20:50:54.227Z,100491.81
2022-08-24T20:53:20.831Z,100484.88
2022-08-24T20:55:47.833Z,100484.19
2022-08-24T20:58:19.066Z,100486.06
2022-08-24T21:00:46.457Z,100488.44
2022-08-24T21:03:18.486Z,100484.88
2022-08-24T21:05:45.850Z,100476.06
2022-08-24T21:08:14.223Z,100490.16
2022-08-24T21:10:42.295Z,100489.84
2022-08-24T21:13:09.321Z,100501.00
2022-08-24T21:15:38.406Z,100474.53
2022-08-24T21:18:05.505Z,100470.97
2022-08-24T21:20:32.815Z,100491.81
2022-08-24T21:22:59.482Z,100496.56
2022-08-24T21:25:27.343Z,100498.94
2022-08-24T21:27:54.394Z,100498.91
2022-08-24T21:30:22.467Z,100491.03
2022-08-24T21:33:08.533Z,100499.66
2022-08-24T21:35:36.792Z,100501.78
2022-08-24T21:38:05.112Z,100486.13
2022-08-24T21:40:32.919Z,100506.38
2022-08-24T21:42:59.688Z,100507.88
2022-08-24T21:45:26.752Z,100512.09
2022-08-24T21:47:54.052Z,100514.09
2022-08-24T21:50:21.041Z,100513.03
2022-08-24T21:52:53.894Z,100488.06
2022-08-24T21:55:21.599Z,100475.78
2022-08-24T21:57:48.342Z,100513.28
2022-08-24T22:00:18.953Z,100506.63
2022-08-24T22:02:48.039Z,100511.50
2022-08-24T22:05:16.235Z,100510.97
2022-08-24T22:07:42.998Z,100504.03
2022-08-24T22:10:10.943Z,100505.88
2022-08-24T22:12:40.095Z,100495.75
2022-08-24T22:15:09.368Z,100495.53
2022-08-24T22:17:36.051Z,100508.44
2022-08-24T22:20:04.474Z,100515.69
2022-08-24T22:22:32.348Z,100520.56
2022-08-24T22:24:59.169Z,100512.59
2022-08-24T22:27:27.086Z,100511.53
2022-08-24T22:29:53.670Z,100496.00
2022-08-24T22:32:20.210Z,100509.06
2022-08-24T22:34:46.937Z,100515.47
2022-08-24T22:37:13.508Z,100506.19
2022-08-24T22:39:40.092Z,100517.88
2022-08-24T22:42:06.935Z,100510.69
2022-08-24T22:44:34.296Z,100489.47
2022-08-24T22:47:03.913Z,100511.38
2022-08-24T22:49:41.159Z,100509.00
2022-08-24T22:52:08.245Z,100518.81
2022-08-24T22:54:35.114Z,100522.69
2022-08-24T22:57:03.459Z,100524.69
2022-08-24T22:59:41.955Z,100525.97
2022-08-24T23:02:11.428Z,100518.00
2022-08-24T23:04:41.320Z,100524.28
2022-08-24T23:07:08.216Z,100525.88
2022-08-24T23:09:44.359Z,100528.75
2022-08-24T23:12:16.989Z,100504.22
2022-08-24T23:14:45.118Z,100525.38
2022-08-24T23:17:12.379Z,100527.97
2022-08-24T23:20:08.140Z,100521.78
2022-08-24T23:22:39.439Z,100520.94
2022-08-24T23:25:09.335Z,100519.84
2022-08-24T23:27:38.466Z,100505.78
2022-08-24T23:30:11.582Z,100523.56
2022-08-24T23:32:39.276Z,100506.41
2022-08-24T23:35:06.480Z,100498.34
2022-08-24T23:37:33.075Z,100524.31
2022-08-24T23:39:59.708Z,100518.63
2022-08-24T23:42:26.304Z,100514.69
2022-08-24T23:44:53.076Z,100506.44
2022-08-24T23:47:20.213Z,100516.09
2022-08-24T23:49:47.822Z,100513.13
2022-08-24T23:52:26.522Z,100520.06
2022-08-24T23:55:05.205Z,100520.78
2022-08-24T23:57:44.892Z,100519.38
